createdAt,value
2022-08-19T00:02:17.766Z,20.69
2022-08-19T00:04:47.906Z,20.67
2022-08-19T00:07:15.873Z,20.64
2022-08-19T00:09:43.515Z,20.51
2022-08-19T00:12:11.326Z,20.52
2022-08-19T00:14:40.210Z,20.52
2022-08-19T00:17:09.393Z,20.44
2022-08-19T00:19:37.963Z,20.35
2022-08-19T00:22:06.755Z,20.42
2022-08-19T00:24:34.468Z,20.42
2022-08-19T00:27:25.195Z,20.38
2022-08-19T00:29:52.221Z,20.30
2022-08-19T00:32:21.421Z,20.29
2022-08-19T00:34:49.118Z,20.30
2022-08-19T00:37:16.711Z,20.26
2022-08-19T00:39:44.478Z,20.24
2022-08-19T00:42:15.065Z,20.24
2022-08-19T00:44:44.333Z,20.09
2022-08-19T00:47:14.333Z,20.22
2022-08-19T00:49:52.422Z,20.09
2022-08-19T00:52:29.886Z,20.16
2022-08-19T00:54:59.632Z,20.00
2022-08-19T00:57:40.181Z,20.12
2022-08-19T01:00:14.194Z,20.06
2022-08-19T01:02:44.200Z,19.98
2022-08-19T01:05:21.693Z,19.84
2022-08-19T01:07:51.891Z,19.93
2022-08-19T01:10:26.701Z,19.93
2022-08-19T01:12:56.675Z,19.92
2022-08-19T01:15:35.156Z,19.93
2022-08-19T01:18:10.067Z,19.93
2022-08-19T01:20:38.020Z,19.83
2022-08-19T01:23:05.734Z,19.79
2022-08-19T01:25:55.645Z,19.82
2022-08-19T01:28:39.745Z,19.69
2022-08-19T01:31:27.226Z,19.73
2022-08-19T01:33:57.858Z,19.72
2022-08-19T01:36:37.876Z,19.72
2022-08-19T01:39:16.112Z,19.68
2022-08-19T01:41:43.936Z,19.62
2022-08-19T01:44:18.829Z,19.69
2022-08-19T01:46:49.334Z,19.66
2022-08-19T01:49:21.963Z,19.60
2022-08-19T01:51:50.760Z,19.58
2022-08-19T01:54:23.238Z,19.59
2022-08-19T01:57:05.822Z,19.46
2022-08-19T01:59:34.664Z,19.60
2022-08-19T02:02:02.930Z,19.55
2022-08-19T02:04:30.580Z,19.50
2022-08-19T02:06:59.179Z,19.41
2022-08-19T02:09:26.953Z,19.39
2022-08-19T02:11:54.575Z,19.37
2022-08-19T02:14:22.192Z,19.42
2022-08-19T02:16:49.939Z,19.37
2022-08-19T02:19:17.786Z,19.40
2022-08-19T02:21:45.705Z,19.35
2022-08-19T02:24:13.374Z,19.23
2022-08-19T02:26:41.113Z,19.27
2022-08-19T02:29:09.269Z,19.35
2022-08-19T02:31:37.259Z,19.29
2022-08-19T02:34:04.884Z,19.25
2022-08-19T02:36:32.603Z,19.27
2022-08-19T02:39:00.950Z,19.18
2022-08-19T02:41:34.371Z,19.17
2022-08-19T02:44:29.201Z,19.17
2022-08-19T02:46:53.050Z,19.23
2022-08-19T02:49:20.918Z,19.20
2022-08-19T02:51:48.617Z,19.11
2022-08-19T02:54:17.032Z,19.09
2022-08-19T02:56:45.818Z,19.22
2022-08-19T02:59:13.714Z,19.12
2022-08-19T03:01:43.331Z,19.16
2022-08-19T03:04:16.604Z,19.15
2022-08-19T03:06:47.859Z,19.13
2022-08-19T03:09:17.759Z,19.20
2022-08-19T03:11:45.550Z,19.13
2022-08-19T03:14:14.490Z,19.16
2022-08-19T03:16:49.237Z,19.09
2022-08-19T03:19:22.251Z,19.11
2022-08-19T03:21:51.116Z,19.12
2022-08-19T03:24:20.449Z,19.08
2022-08-19T03:26:58.724Z,19.05
2022-08-19T03:29:32.617Z,19.10
2022-08-19T03:32:08.184Z,18.91
2022-08-19T03:34:55.781Z,18.99
2022-08-19T03:37:23.513Z,18.85
2022-08-19T03:39:51.176Z,18.99
2022-08-19T03:42:45.363Z,18.90
2022-08-19T03:45:08.464Z,19.03
2022-08-19T03:47:36.196Z,19.00
2022-08-19T03:50:05.382Z,18.98
2022-08-19T03:52:32.972Z,18.99
2022-08-19T03:55:00.734Z,18.95
2022-08-19T03:57:31.946Z,18.96
2022-08-19T04:00:13.124Z,18.82
2022-08-19T04:02:57.989Z,18.92
2022-08-19T04:05:30.284Z,18.92
2022-08-19T04:07:59.798Z,18.84
2022-08-19T04:10:29.272Z,18.74
2022-08-19T04:12:56.897Z,18.87
2022-08-19T04:15:24.524Z,18.82
2022-08-19T04:17:52.149Z,18.85
2022-08-19T04:20:19.787Z,18.79
2022-08-19T04:22:47.514Z,18.82
2022-08-19T04:25:15.221Z,18.80
2022-08-19T04:27:47.374Z,18.83
2022-08-19T04:30:16.103Z,18.80
2022-08-19T04:32:44.685Z,18.83
2022-08-19T04:35:16.707Z,18.83
2022-08-19T04:37:46.324Z,18.83
2022-08-19T04:40:32.788Z,18.82
2022-08-19T04:43:01.952Z,18.81
2022-08-19T04:45:29.768Z,18.71
2022-08-19T04:48:26.601Z,18.61
2022-08-19T04:51:00.422Z,18.66
2022-08-19T04:53:37.688Z,18.69
2022-08-19T04:56:14.030Z,18.59
2022-08-19T04:58:44.685Z,18.67
2022-08-19T05:01:24.730Z,18.76
2022-08-19T05:03:53.721Z,18.73
2022-08-19T05:06:22.654Z,18.56
2022-08-19T05:08:51.111Z,18.68
2022-08-19T05:11:26.955Z,18.55
2022-08-19T05:13:55.245Z,18.58
2022-08-19T05:16:25.524Z,18.66
2022-08-19T05:19:12.323Z,18.71
2022-08-19T05:22:00.250Z,18.71
2022-08-19T05:24:28.609Z,18.71
2022-08-19T05:26:58.928Z,18.69
2022-08-19T05:29:36.333Z,18.77
2022-08-19T05:32:09.559Z,18.74
2022-08-19T05:34:39.431Z,18.77
2022-08-19T05:37:08.481Z,18.85
2022-08-19T05:39:38.209Z,18.84
2022-08-19T05:42:10.373Z,18.82
2022-08-19T05:44:44.881Z,18.98
2022-08-19T05:47:15.831Z,19.01
2022-08-19T05:49:45.029Z,19.07
2022-08-19T05:52:18.529Z,19.15
2022-08-19T05:54:51.063Z,19.16
2022-08-19T05:57:20.850Z,19.24
2022-08-19T05:59:52.752Z,19.23
2022-08-19T06:02:28.022Z,19.40
2022-08-19T06:04:55.682Z,19.41
2022-08-19T06:07:23.972Z,19.45
2022-08-19T06:09:59.741Z,19.49
2022-08-19T06:12:32.568Z,19.60
2022-08-19T06:15:14.676Z,19.70
2022-08-19T06:17:45.235Z,19.66
2022-08-19T06:20:15.900Z,19.89
2022-08-19T06:22:47.300Z,19.83
2022-08-19T06:25:16.356Z,19.87
2022-08-19T06:28:11.413Z,19.91
2022-08-19T06:30:33.562Z,20.09
2022-08-19T06:33:01.245Z,20.10
2022-08-19T06:35:30.468Z,20.04
2022-08-19T06:37:58.300Z,20.13
2022-08-19T06:40:28.417Z,20.22
2022-08-19T06:42:57.325Z,20.23
2022-08-19T06:45:35.488Z,20.12
2022-08-19T06:48:04.150Z,20.31
2022-08-19T06:50:31.791Z,20.35
2022-08-19T06:53:01.443Z,20.38
2022-08-19T06:55:33.368Z,20.36
2022-08-19T06:58:04.799Z,20.38
2022-08-19T07:00:34.048Z,20.51
2022-08-19T07:03:06.159Z,20.55
2022-08-19T07:05:45.443Z,20.58
2022-08-19T07:08:14.781Z,20.63
2022-08-19T07:10:47.517Z,20.63
2022-08-19T07:13:15.371Z,20.55
2022-08-19T07:15:43.245Z,20.62
2022-08-19T07:18:11.991Z,20.63
2022-08-19T07:20:41.935Z,20.54
2022-08-19T07:23:15.892Z,20.60
2022-08-19T07:25:52.902Z,20.73
2022-08-19T07:28:24.760Z,20.57
2022-08-19T07:30:53.821Z,20.80
2022-08-19T07:33:21.652Z,20.76
2022-08-19T07:35:50.693Z,20.91
2022-08-19T07:38:18.409Z,20.76
2022-08-19T07:40:47.279Z,20.98
2022-08-19T07:43:17.807Z,20.93
2022-08-19T07:45:48.021Z,21.10
2022-08-19T07:48:15.777Z,21.10
2022-08-19T07:50:43.879Z,21.08
2022-08-19T07:53:13.079Z,21.20
2022-08-19T07:55:43.775Z,21.26
2022-08-19T07:58:15.799Z,21.29
2022-08-19T08:00:45.354Z,21.32
2022-08-19T08:03:15.294Z,21.33
2022-08-19T08:06:01.502Z,21.31
2022-08-19T08:08:50.169Z,21.34
2022-08-19T08:11:21.974Z,21.37
2022-08-19T08:14:00.437Z,21.40
2022-08-19T08:16:32.232Z,21.42
2022-08-19T08:19:00.582Z,21.43
2022-08-19T08:21:29.090Z,21.46
2022-08-19T08:23:56.926Z,21.43
2022-08-19T08:26:26.010Z,21.33
2022-08-19T08:28:54.756Z,21.48
2022-08-19T08:31:23.077Z,21.45
2022-08-19T08:33:50.952Z,21.53
2022-08-19T08:36:18.838Z,21.57
2022-08-19T08:38:46.991Z,21.61
2022-08-19T08:41:36.500Z,21.46
2022-08-19T08:44:08.429Z,21.50
2022-08-19T08:46:52.747Z,21.67
2022-08-19T08:50:07.811Z,21.71
2022-08-19T08:52:44.455Z,21.76
2022-08-19T08:55:24.594Z,21.83
2022-08-19T08:58:10.313Z,22.00
2022-08-19T09:00:42.399Z,22.06
2022-08-19T09:03:40.239Z,22.10
2022-08-19T09:06:25.951Z,22.18
2022-08-19T09:09:12.216Z,22.28
2022-08-19T09:12:02.090Z,22.30
2022-08-19T09:14:50.696Z,22.26
2022-08-19T09:17:25.907Z,22.29
2022-08-19T09:19:59.642Z,22.44
2022-08-19T09:22:29.399Z,22.31
2022-08-19T09:24:57.367Z,22.34
2022-08-19T09:27:42.094Z,22.34
2022-08-19T09:30:18.320Z,22.38
2022-08-19T09:32:46.670Z,22.33
2022-08-19T09:35:16.048Z,22.55
2022-08-19T09:37:44.521Z,22.46
2022-08-19T09:40:13.924Z,22.59
2022-08-19T09:42:50.371Z,22.53
2022-08-19T09:45:23.084Z,22.43
2022-08-19T09:47:54.331Z,22.46
2022-08-19T09:50:24.606Z,22.68
2022-08-19T09:52:55.072Z,22.59
2022-08-19T09:55:31.322Z,22.79
2022-08-19T09:58:02.647Z,22.93
2022-08-19T10:00:39.210Z,22.98
2022-08-19T10:03:07.086Z,23.23
2022-08-19T10:05:49.733Z,23.29
2022-08-19T10:08:26.679Z,23.23
2022-08-19T10:10:56.708Z,23.34
2022-08-19T10:13:30.452Z,23.33
2022-08-19T10:16:07.306Z,23.23
2022-08-19T10:18:36.104Z,23.32
2022-08-19T10:21:11.567Z,23.38
2022-08-19T10:23:44.862Z,23.32
2022-08-19T10:26:15.863Z,23.48
2022-08-19T10:28:44.142Z,23.35
2022-08-19T10:31:20.707Z,23.35
2022-08-19T10:34:10.115Z,23.34
2022-08-19T10:36:55.890Z,23.42
2022-08-19T10:39:24.561Z,23.37
2022-08-19T10:41:58.979Z,23.49
2022-08-19T10:44:32.333Z,23.51
2022-08-19T10:47:01.001Z,23.52
2022-08-19T10:49:29.018Z,23.48
2022-08-19T10:52:19.049Z,23.50
2022-08-19T10:55:08.508Z,23.42
2022-08-19T11:00:26.701Z,23.34
2022-08-19T11:02:54.372Z,23.32
2022-08-19T11:05:24.476Z,23.29
2022-08-19T11:07:52.944Z,23.31
2022-08-19T11:10:22.091Z,23.22
2022-08-19T11:12:51.675Z,23.27
2022-08-19T11:15:19.395Z,23.37
2022-08-19T11:17:47.051Z,23.40
2022-08-19T11:20:15.992Z,23.45
2022-08-19T11:22:43.925Z,23.48
2022-08-19T11:25:12.309Z,23.60
2022-08-19T11:27:44.465Z,23.76
2022-08-19T11:30:14.793Z,23.95
2022-08-19T11:32:48.608Z,24.01
2022-08-19T11:35:17.719Z,23.99
2022-08-19T11:37:45.332Z,24.00
2022-08-19T11:40:13.274Z,24.02
2022-08-19T11:42:56.613Z,23.88
2022-08-19T11:45:27.655Z,23.96
2022-08-19T11:47:55.743Z,23.88
2022-08-19T11:50:24.612Z,23.90
2022-08-19T11:52:56.507Z,23.87
2022-08-19T11:55:24.826Z,24.04
2022-08-19T11:57:52.736Z,24.08
2022-08-19T12:00:20.706Z,24.10
2022-08-19T12:02:48.349Z,24.18
2022-08-19T12:05:16.007Z,24.14
2022-08-19T12:07:43.630Z,24.29
2022-08-19T12:10:11.905Z,24.31
2022-08-19T12:12:43.681Z,24.33
2022-08-19T12:15:12.949Z,24.23
2022-08-19T12:17:42.828Z,24.18
2022-08-19T12:20:14.482Z,24.03
2022-08-19T12:22:42.580Z,24.06
2022-08-19T12:25:12.370Z,24.00
2022-08-19T12:27:42.733Z,23.85
2022-08-19T12:30:14.294Z,23.85
2022-08-19T12:32:42.328Z,23.90
2022-08-19T12:35:12.399Z,24.06
2022-08-19T12:37:43.259Z,24.01
2022-08-19T12:40:13.130Z,24.14
2022-08-19T12:42:43.111Z,23.99
2022-08-19T12:45:12.950Z,24.08
2022-08-19T12:47:45.345Z,23.70
2022-08-19T12:50:15.250Z,23.24
2022-08-19T12:52:43.479Z,23.01
2022-08-19T12:55:12.546Z,22.78
2022-08-19T12:57:40.326Z,22.64
2022-08-19T13:00:14.483Z,22.60
2022-08-19T13:02:47.528Z,22.68
2022-08-19T13:05:20.936Z,22.65
2022-08-19T13:07:51.610Z,22.69
2022-08-19T13:10:21.651Z,22.56
2022-08-19T13:12:52.632Z,22.40
2022-08-19T13:15:24.524Z,22.43
2022-08-19T13:17:54.805Z,22.46
2022-08-19T13:20:23.524Z,22.39
2022-08-19T13:22:51.199Z,22.33
2022-08-19T13:25:20.807Z,22.52
2022-08-19T13:27:50.491Z,22.54
2022-08-19T13:30:39.977Z,22.67
2022-08-19T13:33:12.299Z,22.87
2022-08-19T13:35:57.938Z,22.98
2022-08-19T13:38:25.979Z,23.06
2022-08-19T13:40:56.208Z,23.32
2022-08-19T13:43:27.282Z,23.56
2022-08-19T13:45:57.572Z,23.80
2022-08-19T13:48:30.026Z,23.77
2022-08-19T13:50:57.718Z,23.98
2022-08-19T13:53:25.691Z,24.13
2022-08-19T13:55:54.647Z,24.07
2022-08-19T13:58:23.260Z,24.07
2022-08-19T14:00:51.243Z,24.03
2022-08-19T14:03:19.029Z,23.75
2022-08-19T14:05:47.764Z,23.90
2022-08-19T14:08:15.548Z,23.87
2022-08-19T14:10:45.546Z,23.83
2022-08-19T14:13:19.805Z,23.94
2022-08-19T14:15:48.398Z,23.91
2022-08-19T14:18:18.366Z,24.15
2022-08-19T14:20:46.207Z,24.39
2022-08-19T14:23:14.689Z,24.31
2022-08-19T14:25:43.603Z,24.42
2022-08-19T14:28:11.900Z,24.46
2022-08-19T14:30:39.964Z,24.56
2022-08-19T14:33:09.454Z,24.44
2022-08-19T14:35:38.378Z,24.43
2022-08-19T14:38:07.740Z,24.31
2022-08-19T14:40:35.736Z,24.20
2022-08-19T14:43:06.368Z,24.28
2022-08-19T14:45:38.640Z,24.42
2022-08-19T14:48:12.531Z,24.76
2022-08-19T14:50:47.497Z,24.94
2022-08-19T14:53:17.329Z,25.01
2022-08-19T14:55:46.986Z,25.09
2022-08-19T14:58:29.086Z,25.01
2022-08-19T15:01:00.551Z,25.06
2022-08-19T15:03:29.584Z,25.05
2022-08-19T15:05:58.578Z,24.89
2022-08-19T15:08:27.923Z,24.73
2022-08-19T15:10:56.174Z,24.76
2022-08-19T15:13:25.628Z,24.66
2022-08-19T15:15:53.874Z,24.64
2022-08-19T15:18:21.529Z,24.61
2022-08-19T15:20:50.480Z,24.65
2022-08-19T15:23:20.804Z,24.66
2022-08-19T15:25:48.825Z,24.54
2022-08-19T15:28:17.350Z,24.55
2022-08-19T15:30:45.188Z,24.46
2022-08-19T15:33:15.273Z,24.48
2022-08-19T15:35:44.279Z,24.37
2022-08-19T15:38:13.970Z,24.45
2022-08-19T15:40:42.414Z,24.53
2022-08-19T15:43:10.053Z,24.42
2022-08-19T15:45:37.790Z,24.24
2022-08-19T15:48:05.944Z,24.30
2022-08-19T15:50:34.095Z,24.27
2022-08-19T15:53:08.871Z,24.05
2022-08-19T15:55:45.000Z,23.93
2022-08-19T15:58:33.606Z,23.88
2022-08-19T16:01:27.252Z,23.86
2022-08-19T16:04:16.374Z,23.66
2022-08-19T16:06:49.294Z,23.76
2022-08-19T16:09:23.508Z,23.71
2022-08-19T16:12:02.728Z,23.64
2022-08-19T16:14:35.204Z,23.53
2022-08-19T16:17:03.367Z,23.62
2022-08-19T16:19:32.077Z,23.64
2022-08-19T16:21:59.757Z,23.64
2022-08-19T16:24:28.984Z,23.44
2022-08-19T16:26:57.152Z,23.44
2022-08-19T16:29:33.943Z,23.45
2022-08-19T16:32:06.112Z,23.53
2022-08-19T16:34:33.971Z,23.57
2022-08-19T16:37:02.468Z,23.54
2022-08-19T16:39:30.967Z,23.48
2022-08-19T16:41:58.788Z,23.53
2022-08-19T16:44:28.277Z,23.50
2022-08-19T16:46:59.919Z,23.49
2022-08-19T16:49:52.990Z,23.53
2022-08-19T16:52:19.159Z,23.35
2022-08-19T16:54:48.671Z,23.26
2022-08-19T16:57:16.910Z,23.41
2022-08-19T16:59:48.796Z,23.38
2022-08-19T17:02:23.394Z,23.30
2022-08-19T17:04:57.612Z,23.23
2022-08-19T17:07:29.427Z,23.29
2022-08-19T17:10:02.734Z,23.06
2022-08-19T17:12:32.109Z,23.07
2022-08-19T17:15:07.188Z,23.02
2022-08-19T17:17:37.287Z,23.21
2022-08-19T17:20:06.888Z,23.14
2022-08-19T17:22:36.886Z,23.10
2022-08-19T17:25:05.028Z,23.02
2022-08-19T17:27:32.809Z,23.12
2022-08-19T17:30:03.961Z,23.02
2022-08-19T17:32:35.130Z,23.02
2022-08-19T17:35:04.099Z,23.00
2022-08-19T17:37:32.484Z,23.00
2022-08-19T17:40:05.181Z,22.99
2022-08-19T17:42:33.639Z,23.05
2022-08-19T17:45:01.294Z,23.08
2022-08-19T17:47:29.548Z,23.08
2022-08-19T17:49:57.868Z,23.04
2022-08-19T17:52:25.769Z,23.05
2022-08-19T17:54:53.480Z,23.16
2022-08-19T17:57:21.095Z,23.05
2022-08-19T17:59:52.334Z,23.17
2022-08-19T18:02:21.924Z,23.07
2022-08-19T18:04:50.267Z,23.06
2022-08-19T18:07:21.569Z,23.18
2022-08-19T18:09:52.114Z,23.01
2022-08-19T18:12:26.844Z,23.13
2022-08-19T18:14:54.840Z,23.09
2022-08-19T18:17:23.323Z,23.06
2022-08-19T18:19:51.237Z,23.11
2022-08-19T18:22:28.046Z,23.05
2022-08-19T18:24:58.264Z,22.92
2022-08-19T18:27:27.773Z,23.07
2022-08-19T18:29:58.092Z,23.05
2022-08-19T18:32:31.386Z,23.02
2022-08-19T18:35:06.557Z,22.93
2022-08-19T18:37:34.445Z,22.93
2022-08-19T18:40:20.853Z,22.91
2022-08-19T18:43:23.714Z,22.83
2022-08-19T18:46:10.431Z,22.76
2022-08-19T18:48:58.032Z,22.62
2022-08-19T18:51:29.994Z,22.65
2022-08-19T18:53:59.513Z,22.62
2022-08-19T18:56:32.295Z,22.62
2022-08-19T18:59:01.507Z,22.42
2022-08-19T19:01:33.984Z,22.54
2022-08-19T19:04:06.268Z,22.45
2022-08-19T19:06:40.333Z,22.44
2022-08-19T19:09:12.740Z,22.50
2022-08-19T19:11:45.247Z,22.42
2022-08-19T19:14:32.741Z,22.46
2022-08-19T19:17:13.895Z,22.56
2022-08-19T19:19:43.960Z,22.44
2022-08-19T19:22:18.154Z,22.40
2022-08-19T19:24:46.141Z,22.49
2022-08-19T19:27:18.556Z,22.50
2022-08-19T19:29:51.978Z,22.28
2022-08-19T19:32:29.451Z,22.33
2022-08-19T19:34:57.410Z,22.39
2022-08-19T19:37:25.168Z,22.33
2022-08-19T19:39:52.908Z,22.35
2022-08-19T19:42:23.737Z,22.34
2022-08-19T19:44:55.272Z,22.35
2022-08-19T19:47:28.473Z,22.27
2022-08-19T19:52:46.717Z,22.21
2022-08-19T19:55:18.331Z,22.12
2022-08-19T19:57:49.655Z,22.14
2022-08-19T20:00:19.207Z,22.11
2022-08-19T20:02:50.488Z,22.11
2022-08-19T20:05:22.911Z,21.96
2022-08-19T20:08:12.689Z,21.91
2022-08-19T20:10:43.044Z,22.01
2022-08-19T20:13:13.544Z,21.96
2022-08-19T20:15:43.752Z,22.01
2022-08-19T20:18:16.021Z,21.96
2022-08-19T20:20:46.472Z,21.78
2022-08-19T20:23:14.363Z,21.81
2022-08-19T20:25:42.284Z,21.77
2022-08-19T20:28:11.939Z,21.78
2022-08-19T20:30:43.773Z,21.78
2022-08-19T20:33:14.630Z,21.81
2022-08-19T20:35:46.317Z,21.77
2022-08-19T20:38:15.897Z,21.74
2022-08-19T20:40:43.724Z,21.68
2022-08-19T20:43:13.242Z,21.72
2022-08-19T20:45:41.220Z,21.70
2022-08-19T20:48:12.274Z,21.68
2022-08-19T20:50:40.518Z,21.67
2022-08-19T20:53:20.144Z,21.60
2022-08-19T20:55:51.869Z,21.46
2022-08-19T20:58:21.763Z,21.48
2022-08-19T21:00:51.395Z,21.49
2022-08-19T21:03:23.093Z,21.41
2022-08-19T21:05:51.098Z,21.41
2022-08-19T21:08:18.823Z,21.23
2022-08-19T21:10:48.456Z,21.39
2022-08-19T21:13:18.278Z,21.41
2022-08-19T21:15:46.652Z,21.33
2022-08-19T21:18:16.962Z,21.30
2022-08-19T21:20:46.086Z,21.27
2022-08-19T21:23:19.899Z,21.20
2022-08-19T21:25:54.179Z,21.11
2022-08-19T21:28:35.086Z,21.10
2022-08-19T21:31:06.831Z,21.01
2022-08-19T21:33:34.814Z,20.93
2022-08-19T21:36:03.931Z,20.88
2022-08-19T21:38:31.902Z,20.90
2022-08-19T21:41:05.857Z,20.70
2022-08-19T21:43:36.968Z,20.69
2022-08-19T21:46:05.906Z,20.55
2022-08-19T21:48:33.778Z,20.64
2022-08-19T21:51:01.822Z,20.54
2022-08-19T21:53:34.102Z,20.54
2022-08-19T21:56:04.735Z,20.57
2022-08-19T21:58:33.654Z,20.48
2022-08-19T22:01:06.115Z,20.46
2022-08-19T22:03:37.866Z,20.45
2022-08-19T22:06:06.566Z,20.29
2022-08-19T22:08:34.189Z,20.20
2022-08-19T22:11:03.638Z,20.18
2022-08-19T22:13:39.987Z,20.35
2022-08-19T22:16:09.944Z,20.31
2022-08-19T22:18:37.755Z,20.23
2022-08-19T22:21:11.304Z,20.11
2022-08-19T22:23:46.984Z,20.22
2022-08-19T22:26:16.667Z,20.23
2022-08-19T22:28:44.729Z,20.05
2022-08-19T22:31:12.605Z,20.15
2022-08-19T22:33:40.404Z,20.22
2022-08-19T22:36:08.570Z,20.16
2022-08-19T22:38:37.371Z,20.19
2022-08-19T22:41:07.684Z,20.14
2022-08-19T22:43:36.912Z,20.12
2022-08-19T22:46:16.824Z,20.23
2022-08-19T22:48:46.906Z,20.07
2022-08-19T22:51:34.236Z,20.07
2022-08-19T22:54:02.657Z,20.11
2022-08-19T22:56:30.607Z,20.10
2022-08-19T22:58:58.410Z,19.94
2022-08-19T23:01:30.591Z,19.91
2022-08-19T23:03:59.917Z,20.01
2022-08-19T23:06:33.172Z,20.02
2022-08-19T23:09:05.129Z,19.99
2022-08-19T23:11:38.245Z,19.97
2022-08-19T23:14:11.529Z,19.88
2022-08-19T23:16:41.619Z,19.77
2022-08-19T23:19:10.743Z,19.83
2022-08-19T23:21:43.209Z,19.72
2022-08-19T23:24:11.772Z,19.75
2022-08-19T23:27:00.234Z,19.89
2022-08-19T23:29:47.306Z,19.93
2022-08-19T23:32:18.811Z,19.92
2022-08-19T23:34:47.325Z,19.91
2022-08-19T23:37:15.263Z,19.84
2022-08-19T23:39:43.617Z,19.75
2022-08-19T23:42:13.616Z,19.74
2022-08-19T23:44:51.268Z,19.72
2022-08-19T23:47:21.173Z,19.63
2022-08-19T23:49:49.134Z,19.65
2022-08-19T23:52:16.732Z,19.61
2022-08-19T23:54:44.443Z,19.60
2022-08-19T23:57:14.135Z,19.59
2022-08-19T23:59:45.319Z,19.53
